Time;durP1;ratioP1;P1;durP2;ratioP2;P2;SDS_P1;SDS_P2;PMS_P1;PMS_P2;Temp;Humidity;BMP_temperature;BMP_pressure;BME280_temperature;BME280_humidity;BME280_pressure;Samples;Min_cycle;Max_cycle;Signal;HPM_P1;HPM_P2
2022/12/24 00:01:18;;;;;;;4.90;4.07;;;;;;;;;;5074163;28;20308;-91
2022/12/24 00:03:45;;;;;;;5.90;2.70;;;;;;;;;;5074248;28;20280;-91
2022/12/24 00:06:17;;;;;;;2.80;1.95;;;;;;;;;;5074598;28;20235;-91
2022/12/24 00:08:45;;;;;;;1.80;1.70;;;;;;;;;;5074661;28;20232;-90
2022/12/24 00:11:13;;;;;;;2.95;1.60;;;;;;;;;;5071537;28;20224;-90
2022/12/24 00:13:40;;;;;;;2.22;1.35;;;;;;;;;;5075124;28;20208;-91
2022/12/24 00:16:10;;;;;;;1.33;1.23;;;;;;;;;;5073326;28;20200;-91
2022/12/24 00:18:37;;;;;;;1.50;1.40;;;;;;;;;;5071366;28;20299;-91
2022/12/24 00:21:06;;;;;;;2.38;1.45;;;;;;;;;;5077223;28;20247;-90
2022/12/24 00:23:33;;;;;;;1.55;1.45;;;;;;;;;;5077858;28;20208;-90
2022/12/24 00:26:01;;;;;;;1.38;1.23;;;;;;;;;;5077139;28;20310;-90
2022/12/24 00:28:28;;;;;;;2.85;2.10;;;;;;;;;;5065176;28;20288;-90
2022/12/24 00:30:56;;;;;;;4.60;1.65;;;;;;;;;;5073471;28;20197;-91
2022/12/24 00:33:25;;;;;;;1.85;1.10;;;;;;;;;;5077431;28;20304;-90
2022/12/24 00:35:53;;;;;;;4.25;1.60;;;;;;;;;;5077570;28;20224;-91
2022/12/24 00:38:21;;;;;;;3.17;1.60;;;;;;;;;;5062766;28;20289;-91
2022/12/24 00:40:49;;;;;;;1.30;1.20;;;;;;;;;;5066138;28;20226;-90
2022/12/24 00:43:16;;;;;;;1.60;1.42;;;;;;;;;;5076993;28;20311;-90
2022/12/24 00:45:44;;;;;;;2.28;1.80;;;;;;;;;;5075481;28;20874;-90
2022/12/24 00:48:11;;;;;;;2.92;1.55;;;;;;;;;;5060711;28;20295;-90
2022/12/24 00:50:40;;;;;;;3.80;1.38;;;;;;;;;;5072097;28;20284;-91
2022/12/24 00:53:08;;;;;;;1.88;1.30;;;;;;;;;;5064365;28;20685;-90
2022/12/24 00:55:35;;;;;;;3.05;1.27;;;;;;;;;;5061778;28;20216;-90
2022/12/24 00:58:03;;;;;;;2.10;1.60;;;;;;;;;;5073772;28;20279;-90
2022/12/24 01:00:31;;;;;;;3.45;1.75;;;;;;;;;;5077075;28;20248;-90
2022/12/24 01:02:58;;;;;;;2.05;1.30;;;;;;;;;;5076213;28;20217;-90
2022/12/24 01:05:25;;;;;;;1.73;1.33;;;;;;;;;;5075886;28;20590;-90
2022/12/24 01:07:54;;;;;;;2.13;1.40;;;;;;;;;;5075669;28;20193;-90
2022/12/24 01:10:22;;;;;;;1.13;1.02;;;;;;;;;;5062788;28;20616;-90
2022/12/24 01:12:49;;;;;;;1.13;1.05;;;;;;;;;;5063303;28;20240;-89
2022/12/24 01:15:21;;;;;;;0.95;0.90;;;;;;;;;;5075486;28;20276;-89
2022/12/24 01:17:49;;;;;;;2.05;1.13;;;;;;;;;;5075299;28;20657;-90
2022/12/24 01:20:18;;;;;;;1.10;0.90;;;;;;;;;;5069403;28;20285;-90
2022/12/24 01:22:47;;;;;;;2.28;1.20;;;;;;;;;;5068163;28;20231;-90
2022/12/24 01:25:16;;;;;;;1.20;1.10;;;;;;;;;;5076600;28;20245;-90
2022/12/24 01:27:44;;;;;;;2.40;1.00;;;;;;;;;;5075864;28;20288;-88
2022/12/24 01:30:14;;;;;;;2.92;1.90;;;;;;;;;;5071818;28;20289;-90
2022/12/24 01:32:42;;;;;;;4.78;2.38;;;;;;;;;;5059411;28;20228;-89
2022/12/24 01:35:11;;;;;;;2.58;1.30;;;;;;;;;;5074412;28;20297;-90
2022/12/24 01:37:39;;;;;;;1.70;0.80;;;;;;;;;;5067383;28;20201;-90
2022/12/24 01:45:46;;;;;;;1.08;0.90;;;;;;;;;;5074146;28;20724;-89
2022/12/24 01:48:30;;;;;;;3.03;2.10;;;;;;;;;;5069942;28;20284;-90
2022/12/24 01:51:03;;;;;;;0.77;0.70;;;;;;;;;;5066271;28;20283;-89
2022/12/24 01:53:31;;;;;;;1.13;1.02;;;;;;;;;;5059936;28;20193;-90
2022/12/24 01:55:58;;;;;;;2.13;1.10;;;;;;;;;;5064378;28;20194;-89
2022/12/24 01:58:28;;;;;;;1.50;1.10;;;;;;;;;;5055761;28;20229;-90
2022/12/24 02:00:55;;;;;;;1.25;0.93;;;;;;;;;;5063017;28;20284;-89
2022/12/24 02:03:23;;;;;;;3.83;1.85;;;;;;;;;;5054683;28;20292;-89
2022/12/24 02:05:53;;;;;;;1.63;1.08;;;;;;;;;;5063850;28;20231;-91
2022/12/24 02:08:22;;;;;;;3.05;1.75;;;;;;;;;;5075055;28;20284;-90
2022/12/24 02:10:50;;;;;;;3.67;1.30;;;;;;;;;;5075459;28;20289;-91
2022/12/24 02:13:20;;;;;;;1.38;1.20;;;;;;;;;;5073430;28;20228;-91
2022/12/24 02:16:01;;;;;;;3.60;1.38;;;;;;;;;;5073646;28;20284;-90
2022/12/24 02:18:35;;;;;;;2.05;1.35;;;;;;;;;;5066640;28;20308;-91
2022/12/24 02:21:34;;;;;;;4.97;1.67;;;;;;;;;;5067188;28;20304;-90
2022/12/24 02:24:41;;;;;;;2.15;1.30;;;;;;;;;;5067931;28;20293;-91
2022/12/24 02:27:33;;;;;;;1.73;1.30;;;;;;;;;;5075475;28;20224;-90
2022/12/24 02:30:15;;;;;;;2.63;1.35;;;;;;;;;;5074561;28;20220;-90
2022/12/24 02:32:56;;;;;;;3.03;1.40;;;;;;;;;;5074325;28;20284;-90
2022/12/24 02:35:34;;;;;;;1.50;1.40;;;;;;;;;;5074850;28;20209;-90
2022/12/24 02:38:06;;;;;;;2.08;1.58;;;;;;;;;;5062934;28;20300;-90
2022/12/24 02:40:38;;;;;;;3.28;2.60;;;;;;;;;;5071710;28;20279;-90
2022/12/24 02:43:10;;;;;;;1.90;1.48;;;;;;;;;;5074970;28;20284;-90
2022/12/24 02:45:42;;;;;;;1.75;1.15;;;;;;;;;;5066937;28;20225;-90
2022/12/24 02:48:10;;;;;;;2.28;1.20;;;;;;;;;;5066577;28;20700;-90
2022/12/24 02:50:38;;;;;;;1.25;1.10;;;;;;;;;;5074428;28;20256;-89
2022/12/24 02:53:09;;;;;;;3.58;0.98;;;;;;;;;;5070071;28;20308;-90
2022/12/24 02:55:43;;;;;;;0.80;0.80;;;;;;;;;;5072390;28;20232;-90
2022/12/24 02:58:30;;;;;;;3.10;1.55;;;;;;;;;;5074275;28;20288;-90
2022/12/24 03:01:16;;;;;;;1.98;1.17;;;;;;;;;;5074510;28;20216;-90
2022/12/24 03:03:57;;;;;;;1.60;1.23;;;;;;;;;;5073764;28;20300;-90
2022/12/24 03:06:33;;;;;;;4.05;1.63;;;;;;;;;;5072952;28;20303;-90
2022/12/24 03:09:06;;;;;;;3.55;1.30;;;;;;;;;;5071791;28;20281;-90
2022/12/24 03:11:34;;;;;;;2.42;1.17;;;;;;;;;;5073193;28;20312;-89
2022/12/24 03:14:02;;;;;;;2.97;1.60;;;;;;;;;;5069111;28;20205;-90
2022/12/24 03:16:31;;;;;;;2.67;1.33;;;;;;;;;;5074302;28;20291;-90
2022/12/24 03:19:00;;;;;;;1.95;1.27;;;;;;;;;;5073920;28;20275;-91
2022/12/24 03:21:31;;;;;;;4.32;2.20;;;;;;;;;;5073923;28;20221;-91
2022/12/24 03:23:59;;;;;;;2.70;1.80;;;;;;;;;;5054033;28;20281;-91
2022/12/24 03:26:28;;;;;;;4.40;1.50;;;;;;;;;;5060361;28;20697;-90
2022/12/24 03:28:56;;;;;;;4.90;1.63;;;;;;;;;;5075605;28;20835;-90
2022/12/24 03:31:28;;;;;;;4.70;1.88;;;;;;;;;;5078733;28;20232;-92
2022/12/24 03:33:58;;;;;;;2.17;1.33;;;;;;;;;;5075649;28;20233;-91
2022/12/24 03:36:29;;;;;;;1.73;1.27;;;;;;;;;;5075045;28;20264;-91
2022/12/24 03:38:57;;;;;;;1.52;1.40;;;;;;;;;;5074611;28;20205;-90
2022/12/24 03:41:24;;;;;;;7.05;2.20;;;;;;;;;;5075502;28;20304;-91
2022/12/24 03:43:52;;;;;;;5.10;1.80;;;;;;;;;;5075487;28;20292;-91
2022/12/24 03:46:19;;;;;;;4.45;2.10;;;;;;;;;;5075859;28;20723;-91
2022/12/24 03:48:47;;;;;;;3.42;2.10;;;;;;;;;;5075265;28;20640;-91
2022/12/24 03:51:21;;;;;;;4.95;2.15;;;;;;;;;;5076942;28;20304;-91
2022/12/24 03:53:49;;;;;;;4.30;1.88;;;;;;;;;;5077236;28;20236;-91
2022/12/24 03:56:16;;;;;;;4.53;2.30;;;;;;;;;;5078635;28;20235;-91
2022/12/24 03:58:44;;;;;;;2.70;1.80;;;;;;;;;;5070345;28;20291;-91
2022/12/24 04:01:11;;;;;;;4.03;1.65;;;;;;;;;;5069328;28;20303;-91
2022/12/24 04:03:39;;;;;;;6.95;2.00;;;;;;;;;;5077007;28;20291;-91
2022/12/24 04:06:10;;;;;;;3.70;2.00;;;;;;;;;;5075821;28;20231;-91
2022/12/24 04:08:40;;;;;;;4.45;1.50;;;;;;;;;;5075404;28;20296;-91
2022/12/24 04:11:10;;;;;;;4.35;1.92;;;;;;;;;;5074487;28;20276;-91
2022/12/24 04:13:37;;;;;;;7.43;2.28;;;;;;;;;;5076675;28;20291;-91
2022/12/24 04:16:08;;;;;;;2.95;1.48;;;;;;;;;;5071860;28;20293;-91
2022/12/24 04:18:36;;;;;;;7.47;2.47;;;;;;;;;;5071524;28;20639;-91
2022/12/24 04:21:04;;;;;;;5.72;1.70;;;;;;;;;;5057164;28;20249;-91
2022/12/24 04:23:33;;;;;;;1.63;1.30;;;;;;;;;;5075457;28;20193;-91
2022/12/24 04:26:02;;;;;;;4.20;1.80;;;;;;;;;;5075023;28;20295;-91
2022/12/24 04:28:30;;;;;;;4.75;2.13;;;;;;;;;;5073821;28;20315;-91
2022/12/24 04:30:59;;;;;;;5.13;1.90;;;;;;;;;;5074295;28;20284;-91
2022/12/24 04:33:27;;;;;;;6.50;1.77;;;;;;;;;;5074298;28;20284;-91
2022/12/24 04:35:57;;;;;;;2.78;1.60;;;;;;;;;;5075955;28;20697;-91
2022/12/24 04:38:24;;;;;;;2.80;1.30;;;;;;;;;;5068995;28;20217;-90
2022/12/24 04:41:01;;;;;;;4.80;2.05;;;;;;;;;;5058143;28;20287;-91
2022/12/24 04:43:29;;;;;;;5.47;1.60;;;;;;;;;;5075012;28;21024;-90
2022/12/24 04:45:57;;;;;;;5.15;2.05;;;;;;;;;;5074399;28;20304;-91
2022/12/24 04:48:25;;;;;;;5.38;1.95;;;;;;;;;;5073751;28;20307;-90
2022/12/24 04:50:52;;;;;;;3.13;2.10;;;;;;;;;;5074314;28;20613;-91
2022/12/24 04:53:20;;;;;;;1.80;1.20;;;;;;;;;;5073222;28;20810;-90
2022/12/24 04:55:47;;;;;;;2.53;1.50;;;;;;;;;;5077105;28;20288;-91
2022/12/24 04:58:16;;;;;;;4.70;2.35;;;;;;;;;;5077670;28;20697;-91
2022/12/24 05:00:44;;;;;;;6.25;2.55;;;;;;;;;;5074202;28;20757;-91
2022/12/24 05:03:12;;;;;;;3.30;1.70;;;;;;;;;;5079927;28;20279;-91
2022/12/24 05:05:40;;;;;;;7.13;1.80;;;;;;;;;;5079151;28;20296;-91
2022/12/24 05:08:07;;;;;;;3.95;1.70;;;;;;;;;;5076753;28;20223;-89
2022/12/24 05:10:35;;;;;;;3.30;1.73;;;;;;;;;;5076497;28;20635;-91
2022/12/24 05:13:03;;;;;;;2.33;1.90;;;;;;;;;;5065124;28;20639;-91
2022/12/24 05:15:32;;;;;;;4.18;1.33;;;;;;;;;;5068914;28;20610;-90
2022/12/24 05:18:00;;;;;;;10.75;2.50;;;;;;;;;;5075095;28;20638;-91
2022/12/24 05:20:27;;;;;;;3.15;2.13;;;;;;;;;;5080164;28;21040;-90
2022/12/24 05:28:33;;;;;;;2.65;1.33;;;;;;;;;;5072894;28;20231;-90
2022/12/24 05:31:02;;;;;;;1.38;1.13;;;;;;;;;;5077538;28;20308;-91
2022/12/24 05:33:30;;;;;;;1.55;1.42;;;;;;;;;;5078627;28;20693;-91
2022/12/24 05:35:57;;;;;;;2.53;1.52;;;;;;;;;;5077047;28;20228;-90
2022/12/24 05:38:25;;;;;;;1.92;1.80;;;;;;;;;;5078849;28;20261;-92
2022/12/24 05:40:52;;;;;;;5.13;2.30;;;;;;;;;;5085788;28;20247;-90
2022/12/24 05:43:20;;;;;;;5.28;2.13;;;;;;;;;;5075835;22;20670;-83
2022/12/24 05:45:47;;;;;;;3.42;2.00;;;;;;;;;;5051633;28;20287;-83
2022/12/24 05:48:16;;;;;;;6.35;2.55;;;;;;;;;;5054137;28;20300;-83
2022/12/24 05:50:43;;;;;;;2.33;1.88;;;;;;;;;;5052538;28;20677;-83
2022/12/24 05:53:11;;;;;;;2.95;1.85;;;;;;;;;;5053975;28;20309;-82
2022/12/24 05:55:38;;;;;;;3.40;1.70;;;;;;;;;;5053459;28;20205;-83
2022/12/24 05:58:06;;;;;;;3.08;2.15;;;;;;;;;;5052856;28;20284;-82
2022/12/24 06:00:33;;;;;;;4.20;2.35;;;;;;;;;;5051942;28;20434;-83
2022/12/24 06:03:01;;;;;;;2.22;1.60;;;;;;;;;;5045208;28;20585;-82
2022/12/24 06:05:29;;;;;;;7.97;3.15;;;;;;;;;;5054067;28;20296;-84
2022/12/24 06:07:57;;;;;;;8.40;4.30;;;;;;;;;;5051157;28;20218;-85
2022/12/24 06:10:25;;;;;;;6.88;2.95;;;;;;;;;;5052662;28;20289;-84
2022/12/24 06:12:52;;;;;;;9.77;2.70;;;;;;;;;;5054073;28;20380;-82
2022/12/24 06:15:20;;;;;;;5.85;2.72;;;;;;;;;;5053706;28;20208;-82
2022/12/24 06:17:47;;;;;;;6.07;2.60;;;;;;;;;;5047846;28;20194;-82
2022/12/24 06:20:15;;;;;;;5.72;2.15;;;;;;;;;;5046588;28;20198;-82
2022/12/24 06:22:43;;;;;;;5.35;2.20;;;;;;;;;;5051753;28;20217;-82
2022/12/24 06:25:11;;;;;;;3.03;1.90;;;;;;;;;;5052447;28;20220;-82
2022/12/24 06:27:38;;;;;;;4.50;2.28;;;;;;;;;;5041654;28;20206;-82
2022/12/24 06:30:08;;;;;;;5.63;2.08;;;;;;;;;;5052618;28;20201;-82
2022/12/24 06:32:35;;;;;;;3.80;1.92;;;;;;;;;;5053304;28;20243;-83
2022/12/24 06:35:03;;;;;;;2.28;1.65;;;;;;;;;;5045909;28;20292;-82
2022/12/24 06:37:30;;;;;;;3.22;1.50;;;;;;;;;;5052065;28;20355;-82
2022/12/24 06:39:59;;;;;;;2.70;1.38;;;;;;;;;;5052251;28;20288;-85
2022/12/24 06:42:27;;;;;;;2.97;1.60;;;;;;;;;;5053079;28;20757;-82
2022/12/24 06:44:54;;;;;;;1.00;0.90;;;;;;;;;;5050629;28;20194;-83
2022/12/24 06:47:22;;;;;;;3.72;1.60;;;;;;;;;;5052652;28;20202;-84
2022/12/24 06:49:49;;;;;;;2.03;1.40;;;;;;;;;;5052228;28;20573;-82
2022/12/24 06:52:16;;;;;;;5.35;1.75;;;;;;;;;;5051548;28;20221;-84
2022/12/24 06:54:44;;;;;;;3.78;2.10;;;;;;;;;;5050862;28;20197;-82
2022/12/24 06:57:13;;;;;;;3.33;1.35;;;;;;;;;;5051861;28;20211;-81
2022/12/24 06:59:40;;;;;;;2.90;1.33;;;;;;;;;;5052317;28;20293;-81
2022/12/24 07:02:08;;;;;;;2.97;1.30;;;;;;;;;;5051751;28;20231;-82
2022/12/24 07:04:36;;;;;;;2.58;1.20;;;;;;;;;;5052012;28;20441;-81
2022/12/24 07:07:03;;;;;;;2.50;2.10;;;;;;;;;;5041186;28;20280;-82
2022/12/24 07:09:31;;;;;;;3.20;2.58;;;;;;;;;;5051331;28;21824;-83
2022/12/24 07:11:58;;;;;;;3.38;2.45;;;;;;;;;;5051880;28;20723;-82
2022/12/24 07:14:27;;;;;;;2.60;1.88;;;;;;;;;;5051922;28;20236;-84
2022/12/24 07:16:56;;;;;;;1.50;1.25;;;;;;;;;;5052665;28;20293;-83
2022/12/24 07:19:23;;;;;;;1.55;1.10;;;;;;;;;;5051629;28;20201;-82
2022/12/24 07:21:51;;;;;;;4.53;1.40;;;;;;;;;;5050761;28;20229;-82
2022/12/24 07:24:19;;;;;;;2.53;1.20;;;;;;;;;;5049871;28;20200;-82
2022/12/24 07:26:46;;;;;;;4.93;2.58;;;;;;;;;;5052193;28;20198;-82
2022/12/24 07:29:13;;;;;;;5.53;2.38;;;;;;;;;;5055578;28;20304;-84
2022/12/24 07:31:42;;;;;;;3.30;1.50;;;;;;;;;;5056062;28;20289;-84
2022/12/24 07:34:10;;;;;;;4.55;1.95;;;;;;;;;;5057101;28;20194;-84
2022/12/24 07:36:37;;;;;;;2.25;1.40;;;;;;;;;;5046823;28;20304;-84
2022/12/24 07:39:05;;;;;;;1.75;1.30;;;;;;;;;;5055176;28;20717;-84
2022/12/24 07:41:32;;;;;;;3.65;1.80;;;;;;;;;;5056332;28;20714;-84
2022/12/24 07:44:00;;;;;;;3.58;1.90;;;;;;;;;;5056354;28;20206;-84
2022/12/24 07:46:27;;;;;;;1.92;1.50;;;;;;;;;;5055999;28;20269;-84
2022/12/24 07:48:56;;;;;;;2.33;1.70;;;;;;;;;;5055746;28;20249;-86
2022/12/24 07:51:23;;;;;;;2.42;1.65;;;;;;;;;;5053716;28;20241;-86
2022/12/24 07:53:51;;;;;;;1.23;1.02;;;;;;;;;;5052787;28;20673;-86
2022/12/24 07:56:18;;;;;;;1.40;1.30;;;;;;;;;;5051412;28;20206;-87
2022/12/24 07:58:46;;;;;;;2.85;1.55;;;;;;;;;;5054850;28;20288;-85
2022/12/24 08:01:13;;;;;;;2.03;1.20;;;;;;;;;;5052735;28;20284;-84
2022/12/24 08:03:40;;;;;;;3.42;1.73;;;;;;;;;;5045260;28;20305;-84
2022/12/24 08:06:10;;;;;;;1.25;1.00;;;;;;;;;;5054111;28;20691;-84
2022/12/24 08:08:38;;;;;;;2.22;1.70;;;;;;;;;;5042207;28;20202;-83
2022/12/24 08:11:07;;;;;;;1.30;1.20;;;;;;;;;;5053833;28;20204;-85
2022/12/24 08:13:35;;;;;;;1.63;1.15;;;;;;;;;;5051952;28;20225;-85
2022/12/24 08:16:02;;;;;;;2.03;1.33;;;;;;;;;;5053571;28;20293;-84
2022/12/24 08:18:30;;;;;;;2.97;1.38;;;;;;;;;;5051582;28;20280;-84
2022/12/24 08:20:57;;;;;;;1.15;1.00;;;;;;;;;;5048343;28;20293;-85
2022/12/24 08:23:26;;;;;;;1.58;1.48;;;;;;;;;;5049266;28;20285;-83
2022/12/24 08:25:54;;;;;;;1.90;1.10;;;;;;;;;;5053101;28;20288;-88
2022/12/24 08:28:21;;;;;;;1.10;1.00;;;;;;;;;;5052868;28;20261;-85
2022/12/24 08:30:50;;;;;;;0.90;0.90;;;;;;;;;;5046090;28;20256;-86
2022/12/24 08:33:18;;;;;;;1.25;0.90;;;;;;;;;;5054571;28;20277;-84
2022/12/24 08:35:49;;;;;;;2.58;1.15;;;;;;;;;;5053015;28;20591;-84
2022/12/24 08:38:16;;;;;;;0.95;0.90;;;;;;;;;;5052647;28;20190;-83
2022/12/24 08:40:48;;;;;;;1.33;1.00;;;;;;;;;;5048160;28;20208;-84
2022/12/24 08:43:16;;;;;;;1.33;1.08;;;;;;;;;;5048980;28;20229;-82
2022/12/24 08:45:43;;;;;;;0.90;0.90;;;;;;;;;;5047291;28;20281;-86
2022/12/24 08:48:11;;;;;;;3.00;1.05;;;;;;;;;;5050495;28;20240;-84
2022/12/24 08:50:41;;;;;;;1.35;0.98;;;;;;;;;;5048506;28;20731;-84
2022/12/24 08:53:09;;;;;;;2.33;1.08;;;;;;;;;;5049723;28;20227;-87
2022/12/24 08:55:36;;;;;;;1.27;1.10;;;;;;;;;;5052856;28;20225;-88
2022/12/24 08:58:05;;;;;;;2.30;1.20;;;;;;;;;;5055083;28;20627;-84
2022/12/24 09:00:33;;;;;;;0.88;0.88;;;;;;;;;;5050518;28;20288;-84
2022/12/24 09:03:00;;;;;;;1.70;1.20;;;;;;;;;;5048595;28;20305;-87
2022/12/24 09:05:28;;;;;;;1.60;1.50;;;;;;;;;;5056441;28;20269;-87
2022/12/24 09:07:55;;;;;;;1.25;1.15;;;;;;;;;;5054387;28;20681;-86
2022/12/24 09:10:23;;;;;;;1.20;1.10;;;;;;;;;;5054314;28;20308;-87
2022/12/24 09:12:51;;;;;;;1.70;1.33;;;;;;;;;;5054462;28;20232;-86
2022/12/24 09:15:20;;;;;;;1.83;1.30;;;;;;;;;;5054722;28;21710;-85
2022/12/24 09:17:47;;;;;;;2.33;1.23;;;;;;;;;;5051628;28;20286;-86
2022/12/24 09:20:15;;;;;;;2.35;1.55;;;;;;;;;;5053107;28;20196;-84
2022/12/24 09:22:42;;;;;;;1.50;1.30;;;;;;;;;;5052777;28;20253;-84
2022/12/24 09:25:10;;;;;;;1.10;1.05;;;;;;;;;;5056157;28;20208;-85
2022/12/24 09:27:38;;;;;;;1.27;1.00;;;;;;;;;;5054848;28;20816;-84
2022/12/24 09:30:09;;;;;;;1.35;1.23;;;;;;;;;;5051128;28;20312;-84
2022/12/24 09:32:38;;;;;;;1.42;1.00;;;;;;;;;;5051327;28;20229;-85
2022/12/24 09:35:06;;;;;;;3.22;1.67;;;;;;;;;;5047370;28;20202;-85
2022/12/24 09:37:34;;;;;;;1.73;1.48;;;;;;;;;;5056961;28;20193;-85
2022/12/24 09:40:01;;;;;;;1.67;1.55;;;;;;;;;;5056179;28;20233;-84
2022/12/24 09:42:42;;;;;;;1.95;1.55;;;;;;;;;;5054435;28;20339;-85
2022/12/24 09:45:18;;;;;;;2.05;1.80;;;;;;;;;;5043365;28;20228;-84
2022/12/24 09:47:50;;;;;;;2.00;1.30;;;;;;;;;;5056610;28;20240;-83
2022/12/24 09:50:32;;;;;;;1.73;1.63;;;;;;;;;;5055867;28;20228;-83
2022/12/24 09:53:04;;;;;;;1.73;1.60;;;;;;;;;;5053336;28;20236;-86
2022/12/24 09:55:36;;;;;;;1.77;1.30;;;;;;;;;;5050566;28;20201;-87
2022/12/24 09:58:06;;;;;;;2.05;1.40;;;;;;;;;;5052632;28;20214;-85
2022/12/24 10:00:35;;;;;;;1.08;0.98;;;;;;;;;;5054377;28;20632;-85
2022/12/24 10:03:13;;;;;;;1.45;1.35;;;;;;;;;;5056371;28;20232;-83
2022/12/24 10:05:47;;;;;;;3.33;1.75;;;;;;;;;;5054571;28;20208;-83
2022/12/24 10:08:26;;;;;;;3.42;1.67;;;;;;;;;;5053507;28;20217;-82
2022/12/24 10:10:56;;;;;;;2.47;1.42;;;;;;;;;;5051478;28;20227;-84
2022/12/24 10:13:37;;;;;;;2.30;1.63;;;;;;;;;;5049716;28;20602;-83
2022/12/24 10:16:15;;;;;;;1.60;1.42;;;;;;;;;;5053787;28;20203;-85
2022/12/24 10:18:54;;;;;;;4.45;1.80;;;;;;;;;;5053564;28;20587;-83
2022/12/24 10:21:32;;;;;;;2.83;1.63;;;;;;;;;;5060357;28;20221;-84
2022/12/24 10:24:06;;;;;;;2.20;1.65;;;;;;;;;;5055162;28;20270;-84
2022/12/24 10:26:40;;;;;;;2.95;1.90;;;;;;;;;;5051614;28;20200;-88
2022/12/24 10:29:15;;;;;;;4.25;1.85;;;;;;;;;;5054358;28;20198;-85
2022/12/24 10:31:50;;;;;;;3.10;1.90;;;;;;;;;;5055817;28;20243;-84
2022/12/24 10:34:24;;;;;;;5.45;2.35;;;;;;;;;;5048117;28;20210;-84
2022/12/24 10:36:52;;;;;;;3.15;1.67;;;;;;;;;;5053003;28;20205;-82
2022/12/24 10:39:22;;;;;;;4.75;2.10;;;;;;;;;;5050844;28;20252;-84
2022/12/24 10:41:54;;;;;;;3.58;1.95;;;;;;;;;;5051231;28;20218;-83
2022/12/24 10:44:24;;;;;;;4.45;2.75;;;;;;;;;;5049745;28;20209;-84
2022/12/24 10:46:51;;;;;;;5.88;3.25;;;;;;;;;;5049844;28;20201;-85
2022/12/24 10:49:29;;;;;;;3.22;2.92;;;;;;;;;;5053807;28;20575;-83
2022/12/24 10:52:00;;;;;;;2.55;1.92;;;;;;;;;;5048639;28;20693;-83
2022/12/24 10:54:33;;;;;;;3.35;2.00;;;;;;;;;;5057048;28;20194;-83
2022/12/24 10:57:02;;;;;;;4.55;2.72;;;;;;;;;;5050548;28;20210;-83
2022/12/24 10:59:40;;;;;;;3.47;2.40;;;;;;;;;;5054309;28;20208;-84
2022/12/24 11:02:28;;;;;;;3.88;2.00;;;;;;;;;;5049261;28;20218;-83
2022/12/24 11:04:59;;;;;;;2.47;1.83;;;;;;;;;;5053462;28;20277;-82
2022/12/24 11:07:30;;;;;;;5.45;2.00;;;;;;;;;;5051955;28;20243;-84
2022/12/24 11:10:00;;;;;;;2.95;2.00;;;;;;;;;;5054404;28;20197;-83
2022/12/24 11:12:29;;;;;;;2.58;2.03;;;;;;;;;;5055194;28;20308;-85
2022/12/24 11:15:03;;;;;;;5.88;2.45;;;;;;;;;;5052881;28;20701;-84
2022/12/24 11:17:31;;;;;;;2.65;2.20;;;;;;;;;;5046221;28;20199;-83
2022/12/24 11:20:02;;;;;;;2.58;1.98;;;;;;;;;;5044358;28;20201;-82
2022/12/24 11:22:31;;;;;;;3.08;1.50;;;;;;;;;;5049013;28;20308;-83
2022/12/24 11:25:03;;;;;;;2.50;2.30;;;;;;;;;;5050875;28;20208;-84
2022/12/24 11:27:41;;;;;;;2.70;2.47;;;;;;;;;;5051223;28;20197;-82
2022/12/24 11:30:22;;;;;;;4.10;2.15;;;;;;;;;;5052984;28;20212;-84
2022/12/24 11:32:51;;;;;;;4.63;2.55;;;;;;;;;;5048511;28;20249;-83
2022/12/24 11:35:22;;;;;;;2.38;1.67;;;;;;;;;;5051130;28;20202;-84
2022/12/24 11:38:09;;;;;;;2.55;1.90;;;;;;;;;;5048660;28;20280;-83
2022/12/24 11:40:39;;;;;;;6.22;3.25;;;;;;;;;;5044947;28;20284;-84
2022/12/24 11:43:11;;;;;;;5.63;2.40;;;;;;;;;;5048362;28;20232;-83
2022/12/24 11:45:39;;;;;;;2.03;1.75;;;;;;;;;;5052347;28;20645;-83
2022/12/24 11:48:26;;;;;;;3.88;2.83;;;;;;;;;;5082298;22;20305;-88
2022/12/24 11:51:06;;;;;;;5.13;2.50;;;;;;;;;;5078382;28;20244;-89
2022/12/24 11:53:41;;;;;;;5.35;2.83;;;;;;;;;;5072759;28;20230;-89
2022/12/24 11:56:17;;;;;;;2.38;1.95;;;;;;;;;;5077932;28;20302;-90
2022/12/24 11:58:51;;;;;;;5.82;2.90;;;;;;;;;;5088059;28;20238;-89
2022/12/24 12:01:21;;;;;;;3.00;1.92;;;;;;;;;;5093586;28;20264;-88
2022/12/24 12:03:51;;;;;;;2.15;1.90;;;;;;;;;;5079368;28;20702;-89
2022/12/24 12:06:30;;;;;;;4.60;2.78;;;;;;;;;;5091603;28;20684;-89
2022/12/24 12:09:03;;;;;;;2.70;1.77;;;;;;;;;;5097034;28;20659;-90
2022/12/24 12:11:31;;;;;;;5.00;2.38;;;;;;;;;;5094784;28;20255;-88
2022/12/24 12:14:00;;;;;;;3.20;2.00;;;;;;;;;;5104992;28;20231;-88
2022/12/24 12:16:59;;;;;;;8.60;2.10;;;;;;;;;;5094819;28;20216;-88
2022/12/24 12:19:22;;;;;;;2.30;1.58;;;;;;;;;;5079267;28;20197;-88
2022/12/24 12:21:52;;;;;;;4.50;2.72;;;;;;;;;;5094191;28;20226;-88
2022/12/24 12:24:24;;;;;;;2.90;2.08;;;;;;;;;;5091608;28;20196;-88
2022/12/24 12:27:03;;;;;;;3.75;1.95;;;;;;;;;;5078231;28;20231;-88
2022/12/24 12:29:35;;;;;;;1.92;1.40;;;;;;;;;;5092191;28;20799;-88
2022/12/24 12:32:06;;;;;;;3.38;3.05;;;;;;;;;;5087064;28;20232;-88
2022/12/24 12:34:39;;;;;;;5.40;2.40;;;;;;;;;;5092174;28;20189;-88
2022/12/24 12:37:14;;;;;;;5.20;2.22;;;;;;;;;;5096281;28;20185;-88
2022/12/24 12:39:42;;;;;;;3.10;2.03;;;;;;;;;;5095881;28;20196;-87
2022/12/24 12:42:17;;;;;;;2.63;2.05;;;;;;;;;;5095725;28;20250;-88
2022/12/24 12:44:54;;;;;;;2.83;1.95;;;;;;;;;;5098234;28;20200;-87
2022/12/24 12:47:54;;;;;;;1.70;1.60;;;;;;;;;;5096169;28;20227;-88
2022/12/24 12:50:28;;;;;;;4.03;1.88;;;;;;;;;;5090156;28;20645;-88
2022/12/24 12:53:31;;;;;;;2.60;1.60;;;;;;;;;;5087934;28;20208;-88
2022/12/24 12:56:07;;;;;;;3.70;2.20;;;;;;;;;;5081782;28;20212;-88
2022/12/24 12:58:39;;;;;;;6.00;2.20;;;;;;;;;;5095760;28;20544;-85
2022/12/24 13:01:11;;;;;;;2.50;1.73;;;;;;;;;;5096115;28;20187;-84
2022/12/24 13:04:22;;;;;;;7.18;1.90;;;;;;;;;;5095561;28;20275;-84
2022/12/24 13:07:21;;;;;;;3.50;2.47;;;;;;;;;;5095438;28;20216;-84
2022/12/24 13:10:09;;;;;;;2.00;1.40;;;;;;;;;;5095548;28;20196;-85
2022/12/24 13:12:57;;;;;;;2.05;1.52;;;;;;;;;;5095607;28;20299;-84
2022/12/24 13:15:57;;;;;;;2.22;1.80;;;;;;;;;;5094769;28;20270;-84
2022/12/24 13:18:44;;;;;;;4.72;2.13;;;;;;;;;;5095538;28;20283;-85
2022/12/24 13:21:17;;;;;;;1.33;1.17;;;;;;;;;;5095433;28;20218;-84
2022/12/24 13:23:45;;;;;;;6.65;3.03;;;;;;;;;;5095262;28;20276;-85
2022/12/24 13:26:15;;;;;;;2.03;1.73;;;;;;;;;;5095054;28;20225;-85
2022/12/24 13:28:43;;;;;;;2.30;1.73;;;;;;;;;;5095345;28;20272;-84
2022/12/24 13:31:28;;;;;;;1.85;1.63;;;;;;;;;;5095111;28;20279;-84
2022/12/24 13:34:03;;;;;;;2.70;1.20;;;;;;;;;;5094965;28;20193;-85
2022/12/24 13:37:04;;;;;;;2.00;1.77;;;;;;;;;;5094863;28;20239;-85
2022/12/24 13:40:03;;;;;;;4.32;2.83;;;;;;;;;;5095454;28;20192;-85
2022/12/24 13:43:11;;;;;;;4.63;2.83;;;;;;;;;;5094642;28;20180;-85
2022/12/24 13:45:49;;;;;;;3.70;2.03;;;;;;;;;;5094954;28;20224;-85
2022/12/24 13:48:30;;;;;;;2.90;2.55;;;;;;;;;;5094062;28;20216;-85
2022/12/24 13:50:59;;;;;;;2.72;1.80;;;;;;;;;;5094928;28;20216;-85
2022/12/24 13:53:31;;;;;;;3.72;2.30;;;;;;;;;;5094859;28;20658;-85
2022/12/24 13:56:05;;;;;;;2.28;1.85;;;;;;;;;;5094735;28;20224;-84
2022/12/24 13:58:36;;;;;;;1.80;1.45;;;;;;;;;;5094930;28;20208;-86
2022/12/24 14:01:06;;;;;;;3.83;1.85;;;;;;;;;;5094518;28;20204;-85
2022/12/24 14:03:36;;;;;;;4.00;2.03;;;;;;;;;;5094792;28;20291;-84
2022/12/24 14:06:07;;;;;;;3.78;3.47;;;;;;;;;;5094497;28;20574;-85
2022/12/24 14:08:39;;;;;;;1.85;1.45;;;;;;;;;;5094656;28;20633;-84
2022/12/24 14:11:11;;;;;;;5.43;1.55;;;;;;;;;;5094709;28;20188;-84
2022/12/24 14:14:12;;;;;;;1.98;1.70;;;;;;;;;;5094149;28;20208;-86
2022/12/24 14:16:46;;;;;;;2.15;1.20;;;;;;;;;;5094356;28;20220;-86
2022/12/24 14:19:16;;;;;;;7.03;2.13;;;;;;;;;;5094325;28;20203;-84
2022/12/24 14:21:49;;;;;;;1.98;1.60;;;;;;;;;;5094205;28;20279;-85
2022/12/24 14:24:19;;;;;;;1.60;1.50;;;;;;;;;;5094377;28;20626;-85
2022/12/24 14:26:49;;;;;;;2.20;1.63;;;;;;;;;;5093676;28;20308;-84
2022/12/24 14:29:25;;;;;;;6.03;2.63;;;;;;;;;;5093980;28;20189;-85
2022/12/24 14:31:53;;;;;;;3.38;1.75;;;;;;;;;;5094268;28;20617;-85
2022/12/24 14:34:20;;;;;;;2.20;1.98;;;;;;;;;;5094032;28;20216;-85
2022/12/24 14:36:49;;;;;;;1.80;1.70;;;;;;;;;;5093933;28;20328;-85
2022/12/24 14:39:24;;;;;;;2.45;2.05;;;;;;;;;;5093836;28;20635;-85
2022/12/24 14:42:00;;;;;;;2.08;1.55;;;;;;;;;;5093754;28;20176;-85
2022/12/24 14:44:39;;;;;;;4.00;1.77;;;;;;;;;;5093623;28;20220;-85
2022/12/24 14:47:22;;;;;;;1.85;1.50;;;;;;;;;;5093903;28;20634;-86
2022/12/24 14:50:34;;;;;;;1.80;1.35;;;;;;;;;;5105513;22;20909;-85
2022/12/24 14:53:13;;;;;;;4.72;1.95;;;;;;;;;;5076348;28;20212;-85
2022/12/24 14:55:45;;;;;;;2.78;1.92;;;;;;;;;;5077039;28;20276;-86
2022/12/24 14:58:31;;;;;;;1.40;1.30;;;;;;;;;;5076465;28;20205;-87
2022/12/24 15:01:17;;;;;;;2.13;1.80;;;;;;;;;;5075895;28;20259;-85
2022/12/24 15:03:44;;;;;;;2.33;1.85;;;;;;;;;;5070011;28;20240;-86
2022/12/24 15:06:13;;;;;;;1.50;1.23;;;;;;;;;;5076337;28;20280;-86
2022/12/24 15:08:45;;;;;;;4.07;1.50;;;;;;;;;;5071248;28;20293;-85
2022/12/24 15:11:19;;;;;;;2.58;1.40;;;;;;;;;;5055792;28;20252;-85
2022/12/24 15:13:49;;;;;;;5.25;2.03;;;;;;;;;;5062085;28;20315;-84
2022/12/24 15:16:24;;;;;;;2.45;2.13;;;;;;;;;;5075666;28;20204;-84
2022/12/24 15:18:55;;;;;;;2.85;1.88;;;;;;;;;;5076098;28;20184;-86
2022/12/24 15:21:32;;;;;;;4.60;1.73;;;;;;;;;;5075427;28;20312;-86